sensor_id;sensor_type;location;lat;lon;timestamp;pressure;altitude;pressure_sealevel;temperature;humidity
35551;BME280;21655;46.056;13.616;2022-10-23T00:00:31;101046.59;;;14.24;100.00
35551;BME280;21655;46.056;13.616;2022-10-23T00:02:56;101046.59;;;14.24;100.00
35551;BME280;21655;46.056;13.616;2022-10-23T00:05:24;101046.59;;;14.24;100.00
35551;BME280;21655;46.056;13.616;2022-10-23T00:07:55;101046.44;;;14.26;100.00
35551;BME280;21655;46.056;13.616;2022-10-23T00:10:22;101053.22;;;14.23;100.00
35551;BME280;21655;46.056;13.616;2022-10-23T00:12:48;101053.63;;;14.20;100.00
35551;BME280;21655;46.056;13.616;2022-10-23T00:15:16;101062.16;;;14.19;100.00
35551;BME280;21655;46.056;13.616;2022-10-23T00:17:42;101065.16;;;14.17;100.00
35551;BME280;21655;46.056;13.616;2022-10-23T00:20:08;101058.31;;;14.20;100.00
35551;BME280;21655;46.056;13.616;2022-10-23T00:22:34;101067.19;;;14.23;100.00
35551;BME280;21655;46.056;13.616;2022-10-23T00:24:59;101065.75;;;14.27;100.00
35551;BME280;21655;46.056;13.616;2022-10-23T00:27:25;101054.78;;;14.26;100.00
35551;BME280;21655;46.056;13.616;2022-10-23T00:29:50;101062.97;;;14.27;100.00
35551;BME280;21655;46.056;13.616;2022-10-23T00:32:16;101057.88;;;14.31;100.00
35551;BME280;21655;46.056;13.616;2022-10-23T00:34:41;101049.88;;;14.28;100.00
35551;BME280;21655;46.056;13.616;2022-10-23T00:37:06;101057.38;;;14.27;100.00
35551;BME280;21655;46.056;13.616;2022-10-23T00:39:32;101045.84;;;14.30;100.00
35551;BME280;21655;46.056;13.616;2022-10-23T00:41:57;101053.84;;;14.33;100.00
35551;BME280;21655;46.056;13.616;2022-10-23T00:46:48;101031.75;;;14.24;100.00
35551;BME280;21655;46.056;13.616;2022-10-23T00:49:14;101034.56;;;14.24;100.00
35551;BME280;21655;46.056;13.616;2022-10-23T00:51:45;101030.91;;;14.23;100.00
35551;BME280;21655;46.056;13.616;2022-10-23T00:54:13;101032.81;;;14.23;100.00
35551;BME280;21655;46.056;13.616;2022-10-23T00:56:42;101036.38;;;14.17;100.00
35551;BME280;21655;46.056;13.616;2022-10-23T00:59:09;101043.00;;;14.16;100.00
35551;BME280;21655;46.056;13.616;2022-10-23T01:01:35;101045.81;;;14.16;100.00
35551;BME280;21655;46.056;13.616;2022-10-23T01:04:01;101052.72;;;14.20;100.00
35551;BME280;21655;46.056;13.616;2022-10-23T01:09:18;101058.59;;;14.25;100.00
35551;BME280;21655;46.056;13.616;2022-10-23T01:12:04;101054.09;;;14.24;100.00
35551;BME280;21655;46.056;13.616;2022-10-23T01:15:03;101051.41;;;14.30;100.00
35551;BME280;21655;46.056;13.616;2022-10-23T01:17:41;101051.06;;;14.33;100.00
35551;BME280;21655;46.056;13.616;2022-10-23T01:28:38;101040.00;;;14.40;100.00
35551;BME280;21655;46.056;13.616;2022-10-23T01:31:10;101040.31;;;14.45;100.00
35551;BME280;21655;46.056;13.616;2022-10-23T01:33:59;101042.22;;;14.44;100.00
35551;BME280;21655;46.056;13.616;2022-10-23T01:36:28;101041.56;;;14.42;100.00
35551;BME280;21655;46.056;13.616;2022-10-23T01:39:00;101038.38;;;14.45;100.00
35551;BME280;21655;46.056;13.616;2022-10-23T01:41:30;101027.03;;;14.47;100.00
35551;BME280;21655;46.056;13.616;2022-10-23T01:44:17;101027.03;;;14.47;100.00
35551;BME280;21655;46.056;13.616;2022-10-23T01:46:45;101037.31;;;14.46;100.00
35551;BME280;21655;46.056;13.616;2022-10-23T01:49:13;101033.69;;;14.46;100.00
35551;BME280;21655;46.056;13.616;2022-10-23T01:51:41;101029.53;;;14.42;100.00
35551;BME280;21655;46.056;13.616;2022-10-23T01:54:09;101032.69;;;14.39;100.00
35551;BME280;21655;46.056;13.616;2022-10-23T01:56:38;101034.63;;;14.38;100.00
35551;BME280;21655;46.056;13.616;2022-10-23T01:59:09;101040.19;;;14.38;100.00
35551;BME280;21655;46.056;13.616;2022-10-23T02:01:38;101029.88;;;14.39;100.00
35551;BME280;21655;46.056;13.616;2022-10-23T02:04:07;101036.16;;;14.41;100.00
35551;BME280;21655;46.056;13.616;2022-10-23T02:06:34;101030.56;;;14.41;100.00
35551;BME280;21655;46.056;13.616;2022-10-23T02:09:00;101031.94;;;14.45;100.00
35551;BME280;21655;46.056;13.616;2022-10-23T02:11:25;101034.53;;;14.46;100.00
35551;BME280;21655;46.056;13.616;2022-10-23T02:14:08;101036.47;;;14.46;100.00
35551;BME280;21655;46.056;13.616;2022-10-23T02:16:49;101049.16;;;14.48;100.00
35551;BME280;21655;46.056;13.616;2022-10-23T02:22:32;101035.22;;;14.48;100.00
35551;BME280;21655;46.056;13.616;2022-10-23T02:25:11;101029.84;;;14.47;100.00
35551;BME280;21655;46.056;13.616;2022-10-23T02:27:45;101027.72;;;14.49;100.00
35551;BME280;21655;46.056;13.616;2022-10-23T02:30:14;101024.75;;;14.50;100.00
35551;BME280;21655;46.056;13.616;2022-10-23T02:32:47;101026.84;;;14.48;100.00
35551;BME280;21655;46.056;13.616;2022-10-23T02:35:14;101032.41;;;14.48;100.00
35551;BME280;21655;46.056;13.616;2022-10-23T02:37:40;101036.94;;;14.49;100.00
35551;BME280;21655;46.056;13.616;2022-10-23T02:40:07;101026.66;;;14.50;100.00
35551;BME280;21655;46.056;13.616;2022-10-23T02:42:41;101023.47;;;14.53;100.00
35551;BME280;21655;46.056;13.616;2022-10-23T02:45:40;101036.09;;;14.49;100.00
35551;BME280;21655;46.056;13.616;2022-10-23T02:48:52;101034.34;;;14.48;100.00
35551;BME280;21655;46.056;13.616;2022-10-23T02:51:30;101030.69;;;14.47;100.00
35551;BME280;21655;46.056;13.616;2022-10-23T02:54:04;101039.72;;;14.49;100.00
35551;BME280;21655;46.056;13.616;2022-10-23T02:56:38;101036.25;;;14.47;100.00
35551;BME280;21655;46.056;13.616;2022-10-23T02:59:22;101036.75;;;14.51;100.00
35551;BME280;21655;46.056;13.616;2022-10-23T03:01:58;101039.38;;;14.52;100.00
35551;BME280;21655;46.056;13.616;2022-10-23T03:04:27;101027.16;;;14.53;100.00
35551;BME280;21655;46.056;13.616;2022-10-23T03:06:53;101019.16;;;14.50;100.00
35551;BME280;21655;46.056;13.616;2022-10-23T03:09:19;101020.69;;;14.53;100.00
35551;BME280;21655;46.056;13.616;2022-10-23T03:11:45;101026.66;;;14.50;100.00
35551;BME280;21655;46.056;13.616;2022-10-23T03:14:12;101023.88;;;14.50;100.00
35551;BME280;21655;46.056;13.616;2022-10-23T03:16:38;101020.00;;;14.51;100.00
35551;BME280;21655;46.056;13.616;2022-10-23T03:19:03;101020.31;;;14.56;100.00
35551;BME280;21655;46.056;13.616;2022-10-23T03:21:29;101017.72;;;14.54;100.00
35551;BME280;21655;46.056;13.616;2022-10-23T03:23:54;101018.41;;;14.56;100.00
35551;BME280;21655;46.056;13.616;2022-10-23T03:26:20;101022.81;;;14.51;100.00
35551;BME280;21655;46.056;13.616;2022-10-23T03:28:45;101025.09;;;14.47;100.00
35551;BME280;21655;46.056;13.616;2022-10-23T03:31:10;101016.72;;;14.47;100.00
35551;BME280;21655;46.056;13.616;2022-10-23T03:33:36;101013.75;;;14.49;100.00
35551;BME280;21655;46.056;13.616;2022-10-23T03:36:02;101019.91;;;14.44;100.00
35551;BME280;21655;46.056;13.616;2022-10-23T03:38:27;101017.13;;;14.44;100.00
35551;BME280;21655;46.056;13.616;2022-10-23T03:40:52;101019.72;;;14.46;100.00
35551;BME280;21655;46.056;13.616;2022-10-23T03:43:18;101024.03;;;14.48;100.00
35551;BME280;21655;46.056;13.616;2022-10-23T03:45:43;101019.53;;;14.47;100.00
35551;BME280;21655;46.056;13.616;2022-10-23T03:48:09;101020.91;;;14.51;100.00
35551;BME280;21655;46.056;13.616;2022-10-23T03:50:35;101026.94;;;14.55;100.00
35551;BME280;21655;46.056;13.616;2022-10-23T03:53:00;101018.41;;;14.56;100.00
35551;BME280;21655;46.056;13.616;2022-10-23T03:55:26;101013.88;;;14.55;100.00
35551;BME280;21655;46.056;13.616;2022-10-23T03:57:55;101020.41;;;14.62;100.00
35551;BME280;21655;46.056;13.616;2022-10-23T04:00:20;101023.78;;;14.58;100.00
35551;BME280;21655;46.056;13.616;2022-10-23T04:02:46;101017.16;;;14.59;100.00
35551;BME280;21655;46.056;13.616;2022-10-23T04:05:11;101019.25;;;14.57;100.00
35551;BME280;21655;46.056;13.616;2022-10-23T04:07:37;101013.50;;;14.58;100.00
35551;BME280;21655;46.056;13.616;2022-10-23T04:10:03;101016.44;;;14.57;100.00
35551;BME280;21655;46.056;13.616;2022-10-23T04:12:29;101021.84;;;14.58;100.00
35551;BME280;21655;46.056;13.616;2022-10-23T04:14:54;101025.88;;;14.56;100.00
35551;BME280;21655;46.056;13.616;2022-10-23T04:17:19;101026.56;;;14.58;100.00
35551;BME280;21655;46.056;13.616;2022-10-23T04:19:45;101034.75;;;14.59;100.00
35551;BME280;21655;46.056;13.616;2022-10-23T04:22:10;101027.44;;;14.58;100.00
35551;BME280;21655;46.056;13.616;2022-10-23T04:24:36;101024.25;;;14.61;100.00
35551;BME280;21655;46.056;13.616;2022-10-23T04:27:01;101018.69;;;14.61;100.00
35551;BME280;21655;46.056;13.616;2022-10-23T04:29:26;101021.09;;;14.64;100.00
35551;BME280;21655;46.056;13.616;2022-10-23T04:31:55;101018.13;;;14.66;100.00
35551;BME280;21655;46.056;13.616;2022-10-23T04:34:21;101013.41;;;14.66;100.00
35551;BME280;21655;46.056;13.616;2022-10-23T04:36:46;101011.47;;;14.67;100.00
35551;BME280;21655;46.056;13.616;2022-10-23T04:39:12;101007.13;;;14.64;100.00
35551;BME280;21655;46.056;13.616;2022-10-23T04:41:38;101007.13;;;14.64;100.00
35551;BME280;21655;46.056;13.616;2022-10-23T04:44:04;101010.41;;;14.68;100.00
35551;BME280;21655;46.056;13.616;2022-10-23T04:46:29;101010.41;;;14.68;100.00
35551;BME280;21655;46.056;13.616;2022-10-23T04:48:55;101014.84;;;14.62;100.00
35551;BME280;21655;46.056;13.616;2022-10-23T04:51:20;101013.97;;;14.62;100.00
35551;BME280;21655;46.056;13.616;2022-10-23T04:53:46;101010.31;;;14.61;100.00
35551;BME280;21655;46.056;13.616;2022-10-23T04:56:12;101013.59;;;14.65;100.00
35551;BME280;21655;46.056;13.616;2022-10-23T04:58:40;101007.50;;;14.61;100.00
35551;BME280;21655;46.056;13.616;2022-10-23T05:01:07;101008.00;;;14.65;100.00
35551;BME280;21655;46.056;13.616;2022-10-23T05:03:35;101017.63;;;14.62;100.00
35551;BME280;21655;46.056;13.616;2022-10-23T05:06:00;101015.88;;;14.61;100.00
35551;BME280;21655;46.056;13.616;2022-10-23T05:08:25;101003.00;;;14.60;100.00
35551;BME280;21655;46.056;13.616;2022-10-23T05:10:51;100998.28;;;14.61;100.00
35551;BME280;21655;46.056;13.616;2022-10-23T05:13:17;101004.56;;;14.63;100.00
35551;BME280;21655;46.056;13.616;2022-10-23T05:15:45;101001.25;;;14.59;100.00
35551;BME280;21655;46.056;13.616;2022-10-23T05:18:14;101008.56;;;14.60;100.00
35551;BME280;21655;46.056;13.616;2022-10-23T05:20:44;100998.56;;;14.66;100.00
35551;BME280;21655;46.056;13.616;2022-10-23T05:23:12;101013.31;;;14.60;100.00
35551;BME280;21655;46.056;13.616;2022-10-23T05:25:39;101010.50;;;14.60;100.00
35551;BME280;21655;46.056;13.616;2022-10-23T05:28:04;101003.97;;;14.67;100.00
35551;BME280;21655;46.056;13.616;2022-10-23T05:30:31;100993.88;;;14.66;100.00
35551;BME280;21655;46.056;13.616;2022-10-23T05:32:59;100996.16;;;14.63;100.00
35551;BME280;21655;46.056;13.616;2022-10-23T05:35:26;101009.47;;;14.61;100.00
35551;BME280;21655;46.056;13.616;2022-10-23T05:37:53;101016.38;;;14.65;100.00
35551;BME280;21655;46.056;13.616;2022-10-23T05:40:20;101016.56;;;14.63;100.00
35551;BME280;21655;46.056;13.616;2022-10-23T05:42:45;101016.56;;;14.63;100.00
35551;BME280;21655;46.056;13.616;2022-10-23T05:45:11;101007.13;;;14.64;100.00
35551;BME280;21655;46.056;13.616;2022-10-23T05:47:36;101024.75;;;14.65;100.00
35551;BME280;21655;46.056;13.616;2022-10-23T05:50:02;101023.88;;;14.64;100.00
35551;BME280;21655;46.056;13.616;2022-10-23T05:52:28;101016.56;;;14.63;100.00
35551;BME280;21655;46.056;13.616;2022-10-23T05:54:53;101029.84;;;14.61;100.00
35551;BME280;21655;46.056;13.616;2022-10-23T05:57:18;101025.81;;;14.64;100.00
35551;BME280;21655;46.056;13.616;2022-10-23T05:59:44;101032.84;;;14.60;100.00
35551;BME280;21655;46.056;13.616;2022-10-23T06:02:09;101031.00;;;14.67;100.00
35551;BME280;21655;46.056;13.616;2022-10-23T06:04:35;101043.53;;;14.71;100.00
35551;BME280;21655;46.056;13.616;2022-10-23T06:07:01;101046.72;;;14.68;100.00
35551;BME280;21655;46.056;13.616;2022-10-23T06:09:27;101048.66;;;14.67;100.00
35551;BME280;21655;46.056;13.616;2022-10-23T06:11:52;101045.47;;;14.70;100.00
35551;BME280;21655;46.056;13.616;2022-10-23T06:14:18;101052.41;;;14.74;100.00
35551;BME280;21655;46.056;13.616;2022-10-23T06:16:43;101058.88;;;14.75;100.00
35551;BME280;21655;46.056;13.616;2022-10-23T06:19:10;101060.00;;;14.80;100.00
35551;BME280;21655;46.056;13.616;2022-10-23T06:21:37;101060.00;;;14.80;100.00
35551;BME280;21655;46.056;13.616;2022-10-23T06:24:04;101049.16;;;14.85;100.00
35551;BME280;21655;46.056;13.616;2022-10-23T06:26:29;101054.06;;;14.83;100.00
35551;BME280;21655;46.056;13.616;2022-10-23T06:28:55;101055.09;;;14.82;100.00
35551;BME280;21655;46.056;13.616;2022-10-23T06:31:20;101052.13;;;14.84;100.00
35551;BME280;21655;46.056;13.616;2022-10-23T06:33:54;101055.59;;;14.86;100.00
35551;BME280;21655;46.056;13.616;2022-10-23T06:36:20;101069.44;;;14.79;100.00
35551;BME280;21655;46.056;13.616;2022-10-23T06:38:45;101069.25;;;14.81;100.00
35551;BME280;21655;46.056;13.616;2022-10-23T06:41:13;101070.88;;;14.75;100.00
35551;BME280;21655;46.056;13.616;2022-10-23T06:43:40;101076.28;;;14.77;100.00
35551;BME280;21655;46.056;13.616;2022-10-23T06:46:05;101076.28;;;14.77;100.00
35551;BME280;21655;46.056;13.616;2022-10-23T06:48:31;101075.63;;;14.75;100.00
35551;BME280;21655;46.056;13.616;2022-10-23T06:50:57;101080.03;;;14.69;100.00
35551;BME280;21655;46.056;13.616;2022-10-23T06:53:23;101088.03;;;14.72;100.00
35551;BME280;21655;46.056;13.616;2022-10-23T06:55:50;101088.53;;;14.76;100.00
35551;BME280;21655;46.056;13.616;2022-10-23T06:58:16;101086.00;;;14.81;100.00
35551;BME280;21655;46.056;13.616;2022-10-23T07:00:42;101084.00;;;14.89;100.00
35551;BME280;21655;46.056;13.616;2022-10-23T07:03:08;101087.47;;;14.91;100.00
35551;BME280;21655;46.056;13.616;2022-10-23T07:05:35;101078.22;;;14.91;100.00
35551;BME280;21655;46.056;13.616;2022-10-23T07:08:00;101076.69;;;14.88;100.00
35551;BME280;21655;46.056;13.616;2022-10-23T07:10:26;101073.91;;;14.88;100.00
35551;BME280;21655;46.056;13.616;2022-10-23T07:12:51;101081.00;;;14.91;100.00
35551;BME280;21655;46.056;13.616;2022-10-23T07:15:16;101086.59;;;14.91;100.00
35551;BME280;21655;46.056;13.616;2022-10-23T07:17:42;101094.13;;;14.90;100.00
35551;BME280;21655;46.056;13.616;2022-10-23T07:20:07;101085.91;;;14.89;100.00
35551;BME280;21655;46.056;13.616;2022-10-23T07:22:33;101087.66;;;14.90;100.00
35551;BME280;21655;46.056;13.616;2022-10-23T07:24:58;101088.53;;;14.90;100.00
35551;BME280;21655;46.056;13.616;2022-10-23T07:27:24;101084.50;;;14.93;100.00
35551;BME280;21655;46.056;13.616;2022-10-23T07:29:50;101095.47;;;14.94;100.00
35551;BME280;21655;46.056;13.616;2022-10-23T07:32:16;101091.22;;;14.98;100.00
35551;BME280;21655;46.056;13.616;2022-10-23T07:34:41;101093.00;;;14.99;100.00
35551;BME280;21655;46.056;13.616;2022-10-23T07:37:07;101097.53;;;15.00;100.00
35551;BME280;21655;46.056;13.616;2022-10-23T07:39:32;101103.38;;;15.05;100.00
35551;BME280;21655;46.056;13.616;2022-10-23T07:41:58;101104.06;;;15.07;100.00
35551;BME280;21655;46.056;13.616;2022-10-23T07:44:23;101103.94;;;15.01;100.00
35551;BME280;21655;46.056;13.616;2022-10-23T07:46:49;101105.31;;;15.04;100.00
35551;BME280;21655;46.056;13.616;2022-10-23T07:49:14;101104.63;;;15.02;100.00
35551;BME280;21655;46.056;13.616;2022-10-23T07:51:40;101099.91;;;15.03;100.00
35551;BME280;21655;46.056;13.616;2022-10-23T07:54:07;101124.28;;;14.95;100.00
35551;BME280;21655;46.056;13.616;2022-10-23T07:56:32;101122.03;;;14.90;100.00
35551;BME280;21655;46.056;13.616;2022-10-23T07:58:57;101116.28;;;14.92;100.00
35551;BME280;21655;46.056;13.616;2022-10-23T08:01:33;101115.91;;;14.95;100.00
35551;BME280;21655;46.056;13.616;2022-10-23T08:04:00;101116.75;;;14.95;100.00
35551;BME280;21655;46.056;13.616;2022-10-23T08:06:26;101113.72;;;14.82;100.00
35551;BME280;21655;46.056;13.616;2022-10-23T08:08:51;101117.41;;;14.83;100.00
35551;BME280;21655;46.056;13.616;2022-10-23T08:11:19;101115.50;;;14.83;100.00
35551;BME280;21655;46.056;13.616;2022-10-23T08:13:50;101117.53;;;14.89;100.00
35551;BME280;21655;46.056;13.616;2022-10-23T08:16:15;101111.72;;;14.91;100.00
35551;BME280;21655;46.056;13.616;2022-10-23T08:18:41;101122.22;;;14.89;100.00
35551;BME280;21655;46.056;13.616;2022-10-23T08:21:09;101119.63;;;14.87;100.00
35551;BME280;21655;46.056;13.616;2022-10-23T08:23:35;101121.25;;;14.82;100.00
35551;BME280;21655;46.056;13.616;2022-10-23T08:26:01;101130.75;;;14.73;100.00
35551;BME280;21655;46.056;13.616;2022-10-23T08:28:28;101133.75;;;14.71;100.00
35551;BME280;21655;46.056;13.616;2022-10-23T08:30:54;101132.69;;;14.72;100.00
35551;BME280;21655;46.056;13.616;2022-10-23T08:33:19;101131.47;;;14.75;100.00
35551;BME280;21655;46.056;13.616;2022-10-23T08:35:45;101127.59;;;14.76;100.00
35551;BME280;21655;46.056;13.616;2022-10-23T08:38:11;101134.59;;;14.72;100.00
35551;BME280;21655;46.056;13.616;2022-10-23T08:40:36;101132.31;;;14.75;100.00
35551;BME280;21655;46.056;13.616;2022-10-23T08:43:10;101133.75;;;14.71;100.00
35551;BME280;21655;46.056;13.616;2022-10-23T08:45:48;101132.31;;;14.75;100.00
35551;BME280;21655;46.056;13.616;2022-10-23T08:48:23;101133.88;;;14.78;100.00
35551;BME280;21655;46.056;13.616;2022-10-23T08:50:55;101138.19;;;14.80;100.00
35551;BME280;21655;46.056;13.616;2022-10-23T08:54:24;101134.03;;;14.76;100.00
35551;BME280;21655;46.056;13.616;2022-10-23T08:56:44;101142.25;;;14.78;100.00
35551;BME280;21655;46.056;13.616;2022-10-23T08:59:18;101140.94;;;14.66;100.00
35551;BME280;21655;46.056;13.616;2022-10-23T09:02:39;101140.50;;;14.77;100.00
35551;BME280;21655;46.056;13.616;2022-10-23T09:04:38;101138.97;;;14.89;100.00
35551;BME280;21655;46.056;13.616;2022-10-23T09:10:15;101139.81;;;15.11;100.00
35551;BME280;21655;46.056;13.616;2022-10-23T09:12:43;101139.50;;;15.06;100.00
35551;BME280;21655;46.056;13.616;2022-10-23T09:15:34;101146.72;;;15.01;100.00
35551;BME280;21655;46.056;13.616;2022-10-23T09:18:14;101133.13;;;14.98;100.00
35551;BME280;21655;46.056;13.616;2022-10-23T09:20:41;101135.44;;;14.95;100.00
35551;BME280;21655;46.056;13.616;2022-10-23T09:23:15;101135.25;;;14.96;100.00
35551;BME280;21655;46.056;13.616;2022-10-23T09:25:42;101141.88;;;14.95;100.00
35551;BME280;21655;46.056;13.616;2022-10-23T09:28:31;101143.25;;;14.99;100.00
35551;BME280;21655;46.056;13.616;2022-10-23T09:31:10;101145.34;;;14.97;100.00
35551;BME280;21655;46.056;13.616;2022-10-23T09:33:36;101147.78;;;15.00;100.00
35551;BME280;21655;46.056;13.616;2022-10-23T09:38:47;101154.22;;;14.64;100.00
35551;BME280;21655;46.056;13.616;2022-10-23T09:41:36;101149.38;;;14.58;100.00
35551;BME280;21655;46.056;13.616;2022-10-23T09:44:29;101152.13;;;14.66;100.00
35551;BME280;21655;46.056;13.616;2022-10-23T09:49:31;101159.00;;;14.78;100.00
35551;BME280;21655;46.056;13.616;2022-10-23T09:54:31;101165.66;;;14.91;100.00
35551;BME280;21655;46.056;13.616;2022-10-23T09:57:21;101151.66;;;14.99;100.00
35551;BME280;21655;46.056;13.616;2022-10-23T09:59:52;101152.50;;;15.14;100.00
35551;BME280;21655;46.056;13.616;2022-10-23T10:02:33;101158.22;;;15.20;100.00
35551;BME280;21655;46.056;13.616;2022-10-23T10:04:59;101151.06;;;15.40;100.00
35551;BME280;21655;46.056;13.616;2022-10-23T10:07:29;101152.97;;;15.54;100.00
35551;BME280;21655;46.056;13.616;2022-10-23T10:09:56;101157.28;;;15.86;100.00
35551;BME280;21655;46.056;13.616;2022-10-23T10:20:11;101158.34;;;15.70;100.00
35551;BME280;21655;46.056;13.616;2022-10-23T10:26:00;101158.38;;;15.56;100.00
35551;BME280;21655;46.056;13.616;2022-10-23T10:34:16;101161.53;;;15.38;100.00
35551;BME280;21655;46.056;13.616;2022-10-23T10:36:54;101155.59;;;15.41;100.00
35551;BME280;21655;46.056;13.616;2022-10-23T10:45:18;101149.47;;;15.81;100.00
35551;BME280;21655;46.056;13.616;2022-10-23T10:50:59;101150.72;;;15.79;100.00
35551;BME280;21655;46.056;13.616;2022-10-23T10:56:18;101142.56;;;15.48;100.00
35551;BME280;21655;46.056;13.616;2022-10-23T10:58:51;101138.81;;;15.56;100.00
35551;BME280;21655;46.056;13.616;2022-10-23T11:01:24;101141.78;;;15.54;100.00
35551;BME280;21655;46.056;13.616;2022-10-23T11:04:12;101146.22;;;15.63;100.00
35551;BME280;21655;46.056;13.616;2022-10-23T11:06:40;101141.22;;;15.73;100.00
35551;BME280;21655;46.056;13.616;2022-10-23T11:09:18;101138.78;;;15.85;100.00
35551;BME280;21655;46.056;13.616;2022-10-23T11:11:44;101136.16;;;15.83;100.00
35551;BME280;21655;46.056;13.616;2022-10-23T11:14:27;101133.28;;;15.91;100.00
35551;BME280;21655;46.056;13.616;2022-10-23T11:17:01;101139.63;;;16.00;100.00
35551;BME280;21655;46.056;13.616;2022-10-23T11:19:34;101131.09;;;16.08;100.00
35551;BME280;21655;46.056;13.616;2022-10-23T11:40:48;101118.88;;;15.94;100.00
35551;BME280;21655;46.056;13.616;2022-10-23T11:46:14;101105.88;;;15.72;100.00
35551;BME280;21655;46.056;13.616;2022-10-23T11:48:55;101103.66;;;15.82;100.00
35551;BME280;21655;46.056;13.616;2022-10-23T11:53:52;101094.44;;;15.82;100.00
35551;BME280;21655;46.056;13.616;2022-10-23T11:58:50;101093.47;;;15.75;100.00
35551;BME280;21655;46.056;13.616;2022-10-23T12:01:24;101086.94;;;15.68;100.00
35551;BME280;21655;46.056;13.616;2022-10-23T12:03:55;101085.72;;;15.77;100.00
35551;BME280;21655;46.056;13.616;2022-10-23T12:06:25;101087.19;;;15.73;100.00
35551;BME280;21655;46.056;13.616;2022-10-23T12:08:56;101092.41;;;15.76;100.00
35551;BME280;21655;46.056;13.616;2022-10-23T12:11:38;101078.69;;;15.81;100.00
35551;BME280;21655;46.056;13.616;2022-10-23T12:14:04;101079.75;;;15.80;100.00
35551;BME280;21655;46.056;13.616;2022-10-23T12:16:35;101068.97;;;15.77;100.00
35551;BME280;21655;46.056;13.616;2022-10-23T12:19:16;101068.09;;;15.76;100.00
35551;BME280;21655;46.056;13.616;2022-10-23T12:21:43;101067.22;;;15.76;100.00
35551;BME280;21655;46.056;13.616;2022-10-23T12:24:36;101065.00;;;15.86;100.00
35551;BME280;21655;46.056;13.616;2022-10-23T12:27:23;101060.81;;;15.96;100.00
35551;BME280;21655;46.056;13.616;2022-10-23T12:38:17;101041.47;;;16.01;100.00
35551;BME280;21655;46.056;13.616;2022-10-23T12:40:49;101042.03;;;16.11;100.00
35551;BME280;21655;46.056;13.616;2022-10-23T12:43:30;101043.63;;;16.20;100.00
35551;BME280;21655;46.056;13.616;2022-10-23T12:46:04;101036.44;;;16.11;100.00
35551;BME280;21655;46.056;13.616;2022-10-23T12:48:47;101034.16;;;16.21;100.00
35551;BME280;21655;46.056;13.616;2022-10-23T12:51:21;101030.75;;;16.26;100.00
35551;BME280;21655;46.056;13.616;2022-10-23T12:53:48;101030.56;;;16.27;100.00
35551;BME280;21655;46.056;13.616;2022-10-23T12:56:14;101035.47;;;16.40;100.00
35551;BME280;21655;46.056;13.616;2022-10-23T12:58:52;101028.31;;;16.58;100.00
35551;BME280;21655;46.056;13.616;2022-10-23T13:01:30;101026.22;;;16.94;100.00
35551;BME280;21655;46.056;13.616;2022-10-23T13:04:06;101016.50;;;17.24;100.00
35551;BME280;21655;46.056;13.616;2022-10-23T13:06:32;101001.72;;;17.43;100.00
35551;BME280;21655;46.056;13.616;2022-10-23T13:08:58;100991.84;;;17.53;100.00
35551;BME280;21655;46.056;13.616;2022-10-23T13:11:25;100999.78;;;17.43;100.00
35551;BME280;21655;46.056;13.616;2022-10-23T13:13:52;101000.09;;;17.27;100.00
35551;BME280;21655;46.056;13.616;2022-10-23T13:16:21;101009.16;;;16.89;100.00
35551;BME280;21655;46.056;13.616;2022-10-23T13:18:47;101010.25;;;16.95;100.00
35551;BME280;21655;46.056;13.616;2022-10-23T13:21:22;100996.09;;;17.02;100.00
35551;BME280;21655;46.056;13.616;2022-10-23T13:23:49;101011.09;;;16.89;100.00
35551;BME280;21655;46.056;13.616;2022-10-23T13:26:31;100999.22;;;16.87;100.00
35551;BME280;21655;46.056;13.616;2022-10-23T13:29:00;101006.78;;;16.93;100.00
35551;BME280;21655;46.056;13.616;2022-10-23T13:31:32;101006.88;;;17.05;100.00
35551;BME280;21655;46.056;13.616;2022-10-23T13:36:23;100996.50;;;17.00;100.00
35551;BME280;21655;46.056;13.616;2022-10-23T13:41:44;100989.88;;;16.73;100.00
35551;BME280;21655;46.056;13.616;2022-10-23T13:44:14;100984.34;;;16.59;100.00
35551;BME280;21655;46.056;13.616;2022-10-23T13:46:41;100988.13;;;16.45;100.00
35551;BME280;21655;46.056;13.616;2022-10-23T13:49:06;100985.19;;;16.32;100.00
35551;BME280;21655;46.056;13.616;2022-10-23T13:51:45;100979.78;;;16.30;100.00
35551;BME280;21655;46.056;13.616;2022-10-23T13:54:18;100981.03;;;16.28;100.00
35551;BME280;21655;46.056;13.616;2022-10-23T13:56:44;100978.47;;;16.26;100.00
35551;BME280;21655;46.056;13.616;2022-10-23T13:59:10;100976.94;;;16.24;100.00
35551;BME280;21655;46.056;13.616;2022-10-23T14:01:35;100981.44;;;16.25;100.00
35551;BME280;21655;46.056;13.616;2022-10-23T14:04:01;100981.03;;;16.28;100.00
35551;BME280;21655;46.056;13.616;2022-10-23T14:06:29;100984.72;;;16.28;100.00
35551;BME280;21655;46.056;13.616;2022-10-23T14:08:55;100987.63;;;16.35;100.00
35551;BME280;21655;46.056;13.616;2022-10-23T14:11:20;100987.69;;;16.41;100.00
35551;BME280;21655;46.056;13.616;2022-10-23T14:13:46;100983.44;;;16.52;100.00
35551;BME280;21655;46.056;13.616;2022-10-23T14:16:13;100981.78;;;16.64;100.00
35551;BME280;21655;46.056;13.616;2022-10-23T14:18:40;100984.88;;;16.69;100.00